Time;durP1;ratioP1;P1;durP2;ratioP2;P2;SDS_P1;SDS_P2;PMS_P1;PMS_P2;Temp;Humidity;BMP_temperature;BMP_pressure;BME280_temperature;BME280_humidity;BME280_pressure;Samples;Min_cycle;Max_cycle;Signal;HPM_P1;HPM_P2
2022/02/20 00:02:12;;;;;;;13.52;4.10;;;;;;;2.13;81.78;99373.94;5016513;28;20056;-79
2022/02/20 00:04:57;;;;;;;11.35;4.50;;;;;;;2.10;82.29;99377.38;5017149;28;20037;-80
2022/02/20 00:07:41;;;;;;;14.05;5.43;;;;;;;2.18;82.83;99372.25;5017156;28;20350;-80
2022/02/20 00:10:25;;;;;;;13.40;4.40;;;;;;;2.18;82.73;99359.31;5016691;28;20042;-73
2022/02/20 00:13:11;;;;;;;18.25;5.13;;;;;;;2.21;82.36;99351.56;5016252;28;20422;-73
2022/02/20 00:15:56;;;;;;;12.63;5.28;;;;;;;2.24;82.48;99342.94;5030309;28;20049;-73
2022/02/20 00:18:40;;;;;;;13.50;5.35;;;;;;;2.24;82.56;99343.81;5016464;28;20423;-80
2022/02/20 00:21:24;;;;;;;14.77;5.28;;;;;;;2.26;82.59;99336.06;5016227;28;20459;-80
2022/02/20 00:24:09;;;;;;;14.57;5.13;;;;;;;2.23;83.20;99333.47;5016859;28;20049;-80
2022/02/20 00:26:53;;;;;;;19.35;4.90;;;;;;;2.27;83.27;99327.44;5016233;28;20440;-79
2022/02/20 00:29:38;;;;;;;14.75;5.28;;;;;;;2.26;83.06;99324.00;5015988;28;20042;-79
2022/02/20 00:32:22;;;;;;;15.52;4.93;;;;;;;2.28;82.75;99317.13;5016132;28;20069;-73
2022/02/20 00:35:07;;;;;;;16.20;5.07;;;;;;;2.32;82.85;99315.38;5015895;28;20046;-73
2022/02/20 00:37:51;;;;;;;12.93;4.75;;;;;;;2.29;82.25;99308.50;5015974;28;20042;-73
2022/02/20 00:40:37;;;;;;;11.98;4.40;;;;;;;2.26;82.66;99305.03;5015898;28;20080;-73
2022/02/20 00:43:21;;;;;;;13.45;4.15;;;;;;;2.27;82.16;99310.19;5015802;28;20128;-73
2022/02/20 00:46:06;;;;;;;12.85;3.83;;;;;;;2.34;82.04;99304.19;5029763;28;20042;-80
2022/02/20 00:48:50;;;;;;;10.85;4.15;;;;;;;2.38;81.62;99310.22;5029625;28;20070;-80
2022/02/20 00:51:35;;;;;;;14.15;4.43;;;;;;;2.40;82.24;99316.25;5015693;28;20053;-79
2022/02/20 00:54:20;;;;;;;14.75;3.78;;;;;;;2.29;81.55;99299.88;5001838;28;20057;-79
2022/02/20 00:57:04;;;;;;;14.45;4.15;;;;;;;2.43;81.29;99302.47;5016306;28;20445;-79
2022/02/20 00:59:48;;;;;;;12.63;4.28;;;;;;;2.51;80.72;99305.91;5015770;28;20038;-80
2022/02/20 01:02:33;;;;;;;12.05;3.78;;;;;;;2.51;80.59;99311.09;5016311;28;20074;-79
2022/02/20 01:05:18;;;;;;;11.10;3.83;;;;;;;2.52;80.86;99307.63;5015532;28;20042;-80
2022/02/20 01:08:05;;;;;;;11.95;3.70;;;;;;;2.51;80.73;99290.41;5015528;28;20053;-80
2022/02/20 01:10:50;;;;;;;12.93;4.10;;;;;;;2.52;81.09;99285.22;5015498;28;20336;-80
2022/02/20 01:13:35;;;;;;;11.68;3.90;;;;;;;2.61;80.80;99286.09;5016067;28;20415;-79
2022/02/20 01:16:20;;;;;;;6.68;3.53;;;;;;;2.49;80.88;99271.44;5015458;28;20034;-80
2022/02/20 01:19:05;;;;;;;12.82;4.72;;;;;;;2.57;80.19;99280.91;5015455;28;20042;-80
2022/02/20 01:21:50;;;;;;;11.15;3.67;;;;;;;2.70;79.75;99278.31;5015271;28;20038;-80
2022/02/20 01:24:34;;;;;;;11.50;3.95;;;;;;;2.61;79.72;99263.69;5001587;28;20046;-80
2022/02/20 01:27:18;;;;;;;12.52;4.22;;;;;;;2.65;80.10;99264.53;5015321;28;20038;-80
2022/02/20 01:30:04;;;;;;;10.82;3.63;;;;;;;2.62;80.43;99255.03;5015322;28;20049;-80
2022/02/20 01:32:48;;;;;;;13.27;4.13;;;;;;;2.66;79.74;99255.91;5001484;28;20085;-80
2022/02/20 01:35:33;;;;;;;11.73;3.85;;;;;;;2.65;80.16;99255.03;5015356;28;20049;-80
2022/02/20 01:38:17;;;;;;;13.10;3.83;;;;;;;2.63;80.86;99253.31;5001388;28;20088;-80
2022/02/20 01:41:04;;;;;;;9.90;3.72;;;;;;;2.62;80.83;99241.25;5003328;28;20042;-80
2022/02/20 01:43:53;;;;;;;10.43;3.35;;;;;;;2.61;80.68;99242.13;5005324;28;20439;-80
2022/02/20 01:46:42;;;;;;;13.45;3.95;;;;;;;2.63;80.35;99238.66;5005803;28;20111;-80
2022/02/20 01:49:27;;;;;;;12.02;3.10;;;;;;;2.70;80.18;99235.22;5018976;28;20426;-80
2022/02/20 01:52:13;;;;;;;12.52;3.50;;;;;;;2.75;79.46;99230.00;5018948;28;20058;-80
2022/02/20 01:54:57;;;;;;;12.88;4.05;;;;;;;2.79;79.52;99218.78;5018972;28;20042;-81
2022/02/20 01:57:45;;;;;;;12.80;3.35;;;;;;;2.84;78.79;99218.78;5018895;28;20038;-73
2022/02/20 02:01:08;;;;;;;10.88;3.20;;;;;;;2.83;79.35;99215.34;5021311;28;20053;-73
2022/02/20 02:04:13;;;;;;;11.40;3.13;;;;;;;2.93;78.82;99211.88;5037679;28;20140;-73
2022/02/20 02:07:10;;;;;;;11.82;4.78;;;;;;;2.89;79.55;99188.56;5006548;28;20084;-73
2022/02/20 02:10:08;;;;;;;9.15;2.85;;;;;;;2.84;78.69;99177.41;5018699;28;20057;-73
2022/02/20 02:13:11;;;;;;;;;;;;;;;2.90;78.99;99183.41;5019691;28;20042;-73
2022/02/20 02:16:12;;;;;;;6.25;2.00;;;;;;;2.87;78.91;99162.72;5006838;28;19925;-73
2022/02/20 02:19:15;;;;;;;7.90;2.45;;;;;;;2.89;78.90;99147.19;5018600;28;20034;-73
2022/02/20 02:22:07;;;;;;;8.65;2.20;;;;;;;2.92;78.84;99162.69;5018327;28;20469;-73
2022/02/20 02:25:19;;;;;;;8.27;2.80;;;;;;;3.03;78.24;99138.50;5018354;28;20087;-73
2022/02/20 02:28:26;;;;;;;11.15;2.60;;;;;;;2.91;78.29;99124.78;5007427;28;20056;-73
2022/02/20 02:31:17;;;;;;;7.32;2.28;;;;;;;3.02;78.98;99133.31;5018257;28;20071;-73
2022/02/20 02:34:03;;;;;;;10.18;2.70;;;;;;;3.04;78.54;99134.19;5004566;28;20464;-73
2022/02/20 02:36:51;;;;;;;9.50;2.28;;;;;;;3.12;77.87;99127.25;5018196;28;20045;-73
2022/02/20 02:39:38;;;;;;;7.63;2.55;;;;;;;3.10;77.20;99118.63;5018797;28;20096;-73
2022/02/20 02:42:22;;;;;;;9.20;2.30;;;;;;;3.16;77.09;99116.00;5018174;28;20052;-73
2022/02/20 02:45:08;;;;;;;9.82;2.83;;;;;;;3.24;77.32;99116.81;4990585;28;20461;-73
2022/02/20 02:47:52;;;;;;;8.23;2.78;;;;;;;3.20;76.89;99111.66;5018023;28;20113;-73
2022/02/20 02:50:37;;;;;;;8.73;3.05;;;;;;;3.27;76.87;99114.19;5004040;28;20050;-73
2022/02/20 02:53:21;;;;;;;8.73;2.78;;;;;;;3.30;76.44;99102.13;5016823;28;20076;-73
2022/02/20 02:56:06;;;;;;;9.50;2.63;;;;;;;3.33;76.40;99092.59;5017756;28;20354;-73
2022/02/20 02:58:50;;;;;;;9.02;3.42;;;;;;;3.27;76.28;99092.63;5017742;28;20054;-73
2022/02/20 03:01:35;;;;;;;6.35;2.28;;;;;;;3.22;75.91;99066.81;5017650;28;20038;-73
2022/02/20 03:04:19;;;;;;;12.82;3.17;;;;;;;3.41;75.81;99085.66;5017655;28;20088;-73
2022/02/20 03:07:05;;;;;;;8.35;2.38;;;;;;;3.27;75.85;99070.19;5003978;28;20045;-73
2022/02/20 03:09:49;;;;;;;5.82;2.03;;;;;;;3.24;76.16;99062.44;5003838;28;20074;-73
2022/02/20 03:12:34;;;;;;;4.90;1.95;;;;;;;3.42;74.42;99068.38;5017390;28;20061;-73
2022/02/20 03:15:19;;;;;;;6.43;2.30;;;;;;;3.42;74.77;99073.56;5017411;28;20037;-73
2022/02/20 03:18:04;;;;;;;8.52;2.33;;;;;;;3.43;74.96;99059.72;5017977;28;20041;-73
2022/02/20 03:20:48;;;;;;;7.53;2.42;;;;;;;3.51;74.13;99065.72;5003670;28;20073;-73
2022/02/20 03:23:35;;;;;;;12.82;2.65;;;;;;;3.55;74.00;99051.00;5017990;28;20347;-73
2022/02/20 03:26:19;;;;;;;9.68;3.30;;;;;;;3.48;74.35;99045.88;5017150;28;20350;-73
2022/02/20 03:29:06;;;;;;;10.60;3.03;;;;;;;3.53;74.19;99050.16;5017170;28;20042;-73
2022/02/20 03:31:52;;;;;;;7.32;2.08;;;;;;;3.58;73.74;99025.09;5017114;28;20042;-73
2022/02/20 03:34:36;;;;;;;8.68;2.22;;;;;;;3.55;73.96;99020.78;5003420;28;20065;-73
2022/02/20 03:37:21;;;;;;;5.88;1.95;;;;;;;3.63;73.66;99020.72;5017198;28;20057;-73
2022/02/20 03:40:06;;;;;;;7.07;2.00;;;;;;;3.62;73.25;99009.50;5017831;28;20049;-73
2022/02/20 03:42:51;;;;;;;11.15;2.72;;;;;;;3.53;73.55;98994.03;5016932;28;20050;-73
2022/02/20 03:45:57;;;;;;;14.52;5.03;;;;;;;3.62;72.72;98999.13;5016789;28;20042;-73
2022/02/20 03:48:41;;;;;;;9.85;3.53;;;;;;;3.62;72.80;98985.34;5016819;28;20430;-73
2022/02/20 03:51:38;;;;;;;15.48;3.92;;;;;;;3.55;73.36;98988.88;5016520;28;20049;-73
2022/02/20 03:54:23;;;;;;;9.48;2.00;;;;;;;3.60;73.09;98997.44;5016611;28;20049;-73
2022/02/20 03:57:07;;;;;;;7.82;2.40;;;;;;;3.53;73.60;98995.78;4989183;28;20053;-73
2022/02/20 04:00:15;;;;;;;5.97;2.27;;;;;;;3.51;73.98;98996.66;5017291;28;20046;-73
2022/02/20 04:03:00;;;;;;;4.85;2.42;;;;;;;3.46;74.41;98984.63;5017164;28;20050;-73
2022/02/20 04:05:44;;;;;;;7.72;2.22;;;;;;;3.49;74.20;98980.28;5016573;28;20112;-73
2022/02/20 04:08:29;;;;;;;9.45;2.40;;;;;;;3.36;75.63;98981.25;5002865;28;20068;-73
2022/02/20 04:11:18;;;;;;;8.23;4.03;;;;;;;3.38;75.13;98979.53;5003174;28;20042;-73
2022/02/20 04:14:15;;;;;;;12.32;3.53;;;;;;;3.51;74.95;98978.53;5016211;28;20346;-73
2022/02/20 04:17:17;;;;;;;9.65;2.55;;;;;;;3.45;74.91;98977.75;5004605;28;20044;-73
2022/02/20 04:20:03;;;;;;;12.95;4.95;;;;;;;3.53;74.55;98968.16;5016231;28;20045;-73
2022/02/20 04:22:48;;;;;;;5.97;1.88;;;;;;;3.53;75.09;98972.47;5016351;28;20346;-73
2022/02/20 04:25:37;;;;;;;7.65;2.63;;;;;;;3.49;74.31;98962.16;5002290;28;20062;-74
2022/02/20 04:28:25;;;;;;;8.05;2.25;;;;;;;3.48;73.69;98968.22;5016090;28;20426;-74
2022/02/20 04:31:10;;;;;;;4.82;1.65;;;;;;;3.61;71.58;98974.13;5016057;28;20049;-72
2022/02/20 04:33:57;;;;;;;3.80;1.88;;;;;;;3.66;70.96;98961.13;5002237;28;20050;-73
2022/02/20 04:36:42;;;;;;;3.17;1.38;;;;;;;3.57;71.61;98950.84;5002314;28;20042;-73
2022/02/20 04:39:27;;;;;;;6.05;1.73;;;;;;;3.76;70.31;98947.19;5016007;28;20042;-73
2022/02/20 04:42:12;;;;;;;5.85;1.80;;;;;;;3.63;71.43;98928.34;5015832;28;20042;-73
2022/02/20 04:45:25;;;;;;;7.85;1.90;;;;;;;3.68;72.26;98929.16;5014916;28;20403;-73
2022/02/20 04:48:11;;;;;;;9.00;1.70;;;;;;;3.74;72.55;98939.44;5015664;28;20042;-73
2022/02/20 04:50:56;;;;;;;4.18;1.23;;;;;;;3.69;73.32;98936.03;5015582;28;20050;-73
2022/02/20 04:53:41;;;;;;;10.27;1.95;;;;;;;3.74;73.36;98938.59;5015807;28;20042;-73
2022/02/20 04:56:27;;;;;;;4.50;1.33;;;;;;;3.77;73.34;98927.31;5015945;28;20047;-73
2022/02/20 04:59:13;;;;;;;3.90;1.48;;;;;;;3.82;73.44;98939.34;5001785;28;20500;-73
2022/02/20 05:02:03;;;;;;;2.95;0.93;;;;;;;3.74;74.33;98921.31;5015580;28;20050;-73
2022/02/20 05:04:54;;;;;;;13.05;2.58;;;;;;;3.83;74.85;98919.47;5015561;28;20434;-73
2022/02/20 05:07:38;;;;;;;6.53;1.33;;;;;;;3.68;76.13;98916.19;5015559;28;20057;-73
2022/02/20 05:10:23;;;;;;;3.60;1.30;;;;;;;3.86;75.87;98922.88;5001967;28;20056;-73
2022/02/20 05:13:08;;;;;;;6.60;1.13;;;;;;;3.90;75.92;98914.22;5015366;28;20046;-73
2022/02/20 05:15:53;;;;;;;5.13;1.10;;;;;;;3.87;78.88;98918.59;5014978;28;20454;-73
2022/02/20 05:18:39;;;;;;;3.20;1.20;;;;;;;3.78;80.95;98919.53;5015450;28;20374;-73
2022/02/20 05:21:24;;;;;;;5.43;0.95;;;;;;;3.90;82.86;98913.34;4988036;28;20062;-73
2022/02/20 05:24:09;;;;;;;4.90;1.30;;;;;;;3.88;85.74;98915.97;5015332;28;20046;-74
2022/02/20 05:26:56;;;;;;;5.25;1.40;;;;;;;3.73;88.42;98917.00;5015323;28;20065;-73
2022/02/20 05:29:47;;;;;;;5.82;1.15;;;;;;;3.63;90.47;98912.78;5015449;28;20046;-73
2022/02/20 05:32:35;;;;;;;4.50;1.08;;;;;;;3.61;91.69;98908.53;5015425;28;20049;-73
2022/02/20 05:35:26;;;;;;;8.18;1.05;;;;;;;3.63;94.00;98910.22;5002577;28;20446;-72
2022/02/20 05:38:11;;;;;;;4.93;1.02;;;;;;;3.57;98.82;98920.63;5001515;28;20042;-73
2022/02/20 05:40:57;;;;;;;3.17;0.80;;;;;;;3.17;100.00;98897.75;5015182;28;20353;-72
2022/02/20 05:43:41;;;;;;;3.33;1.17;;;;;;;3.13;100.00;98913.31;5001683;28;20046;-73
2022/02/20 05:46:28;;;;;;;5.90;1.52;;;;;;;3.07;100.00;98918.56;5001851;28;20050;-73
2022/02/20 05:49:13;;;;;;;5.22;0.82;;;;;;;2.87;100.00;98916.16;5015232;28;20396;-73
2022/02/20 05:52:14;;;;;;;7.43;1.25;;;;;;;2.66;100.00;98889.56;5015125;28;20033;-73
2022/02/20 05:55:02;;;;;;;6.63;1.00;;;;;;;2.66;100.00;98909.41;5015100;28;20037;-73
2022/02/20 05:57:52;;;;;;;2.72;1.30;;;;;;;2.62;100.00;98907.72;5001456;28;20111;-73
2022/02/20 06:00:44;;;;;;;6.90;1.65;;;;;;;2.44;100.00;98891.47;5002063;28;20042;-72
2022/02/20 06:03:29;;;;;;;2.95;1.00;;;;;;;2.29;100.00;98876.91;5014578;28;20046;-73
2022/02/20 06:06:40;;;;;;;4.60;1.23;;;;;;;2.31;100.00;98895.00;5015395;28;20046;-73
2022/02/20 06:09:39;;;;;;;5.15;1.50;;;;;;;2.13;100.00;98885.63;5002469;28;20042;-73
2022/02/20 06:12:39;;;;;;;3.80;0.90;;;;;;;2.20;100.00;98887.28;5013884;28;20046;-73
2022/02/20 06:15:36;;;;;;;5.65;1.17;;;;;;;2.06;100.00;98891.69;5014567;28;20042;-73
2022/02/20 06:18:32;;;;;;;6.40;1.45;;;;;;;1.97;100.00;98871.94;5015133;28;20034;-73
2022/02/20 06:21:40;;;;;;;3.28;0.93;;;;;;;2.01;100.00;98885.69;5015415;28;20065;-73
2022/02/20 06:24:54;;;;;;;;;;;;;;;1.94;100.00;98882.28;5000203;28;20457;-74
2022/02/20 06:28:04;;;;;;;5.68;1.17;;;;;;;1.92;100.00;98888.31;5017310;28;20013;-73
2022/02/20 06:30:50;;;;;;;4.10;0.75;;;;;;;1.97;100.00;98889.16;5018591;28;20042;-73
2022/02/20 06:33:43;;;;;;;3.75;1.25;;;;;;;1.93;100.00;98877.13;5017979;28;20042;-73
2022/02/20 06:36:28;;;;;;;2.67;1.42;;;;;;;1.97;100.00;98878.81;5018059;28;20038;-73
2022/02/20 06:39:13;;;;;;;4.78;1.35;;;;;;;2.03;100.00;98876.22;5004239;28;20411;-73
2022/02/20 06:41:58;;;;;;;6.45;1.02;;;;;;;2.00;100.00;98881.38;5016253;28;20053;-74
2022/02/20 06:44:43;;;;;;;5.95;1.90;;;;;;;2.01;100.00;98870.19;5016855;28;20042;-73
2022/02/20 06:48:00;;;;;;;8.30;2.42;;;;;;;2.19;100.00;98875.25;5017736;28;20442;-74
2022/02/20 06:51:00;;;;;;;8.63;2.53;;;;;;;2.11;100.00;98879.59;5017464;28;20049;-73
2022/02/20 06:54:04;;;;;;;7.13;2.50;;;;;;;2.24;100.00;98877.78;5018356;28;20042;-73
2022/02/20 06:56:59;;;;;;;4.18;1.40;;;;;;;2.17;100.00;98868.38;5018088;28;20046;-73
2022/02/20 06:59:44;;;;;;;5.55;2.28;;;;;;;2.23;100.00;98866.59;5002739;28;20042;-73
2022/02/20 07:02:29;;;;;;;8.15;2.95;;;;;;;2.17;100.00;98858.03;5016344;28;20518;-73
2022/02/20 07:05:13;;;;;;;20.67;9.02;;;;;;;2.27;100.00;98862.28;5016375;28;20045;-73
2022/02/20 07:07:59;;;;;;;12.90;6.72;;;;;;;2.37;100.00;98871.69;5015587;28;20141;-73
2022/02/20 07:10:43;;;;;;;5.40;2.58;;;;;;;2.41;100.00;98860.47;5002144;28;20061;-73
2022/02/20 07:13:28;;;;;;;6.53;2.97;;;;;;;2.46;100.00;98866.44;5016237;28;20323;-73
2022/02/20 07:16:13;;;;;;;7.22;2.67;;;;;;;2.52;100.00;98863.81;5017182;28;20041;-73
2022/02/20 07:18:57;;;;;;;6.47;2.08;;;;;;;2.38;100.00;98862.22;5017526;28;20054;-73
2022/02/20 07:21:43;;;;;;;6.47;2.17;;;;;;;2.46;100.00;98866.44;5017022;28;20042;-73
2022/02/20 07:24:28;;;;;;;14.75;6.10;;;;;;;2.53;100.00;98844.84;5015783;28;20042;-73
2022/02/20 07:27:13;;;;;;;24.73;11.60;;;;;;;2.66;100.00;98858.53;5015825;28;20038;-73
2022/02/20 07:29:57;;;;;;;26.25;12.88;;;;;;;2.65;100.00;98859.41;5016498;28;20049;-73
2022/02/20 07:32:41;;;;;;;9.10;3.60;;;;;;;2.72;100.00;98852.47;5016305;28;20046;-73
2022/02/20 07:35:26;;;;;;;7.10;2.95;;;;;;;2.74;100.00;98863.66;5016354;28;20046;-73
2022/02/20 07:38:10;;;;;;;9.25;3.25;;;;;;;2.78;100.00;98853.25;5017315;28;20050;-73
2022/02/20 07:40:54;;;;;;;4.50;1.63;;;;;;;2.81;100.00;98858.41;5017095;28;20457;-73
2022/02/20 07:43:39;;;;;;;2.88;1.48;;;;;;;2.91;100.00;98859.19;5017620;28;20050;-73
2022/02/20 07:46:23;;;;;;;2.58;1.00;;;;;;;2.99;100.00;98861.69;5016799;28;20384;-73
2022/02/20 07:49:08;;;;;;;3.30;1.20;;;;;;;2.94;100.00;98847.97;5030993;28;20046;-73
2022/02/20 07:51:52;;;;;;;4.43;1.95;;;;;;;2.98;100.00;98859.97;5016488;28;20046;-73
2022/02/20 07:54:37;;;;;;;3.92;2.10;;;;;;;2.96;100.00;98862.59;5016982;28;20038;-73
2022/02/20 07:57:21;;;;;;;4.35;1.65;;;;;;;3.00;100.00;98863.44;5017350;28;20129;-73
2022/02/20 08:00:06;;;;;;;7.68;5.10;;;;;;;2.93;100.00;98851.44;5030470;28;20104;-73
2022/02/20 08:03:02;;;;;;;4.60;3.33;;;;;;;3.03;100.00;98860.81;5016733;28;20042;-73
2022/02/20 08:05:46;;;;;;;6.07;2.78;;;;;;;3.05;100.00;98848.69;5017271;28;20053;-73
2022/02/20 08:08:32;;;;;;;5.57;3.00;;;;;;;3.12;100.00;98860.72;5017638;28;20120;-73
2022/02/20 08:11:17;;;;;;;5.93;3.70;;;;;;;3.15;100.00;98855.53;5002546;28;20041;-73
2022/02/20 08:14:02;;;;;;;4.45;3.03;;;;;;;3.16;100.00;98859.81;5016480;28;20038;-74
2022/02/20 08:16:47;;;;;;;3.70;2.67;;;;;;;3.22;100.00;98854.56;5016559;28;20042;-74
2022/02/20 08:19:31;;;;;;;5.78;3.67;;;;;;;3.35;100.00;98864.78;5016353;28;20041;-74
2022/02/20 08:22:16;;;;;;;9.77;7.32;;;;;;;3.38;100.00;98865.63;5017231;28;20342;-73
2022/02/20 08:25:00;;;;;;;11.27;5.45;;;;;;;3.42;100.00;98845.75;5017473;28;20419;-74
2022/02/20 08:27:45;;;;;;;10.88;4.88;;;;;;;3.52;100.00;98857.69;5016148;28;20394;-74
2022/02/20 08:30:29;;;;;;;7.47;3.10;;;;;;;3.54;100.00;98858.50;5016550;28;20058;-74
2022/02/20 08:33:13;;;;;;;8.73;3.15;;;;;;;3.73;100.00;98872.09;5016140;28;20065;-74
2022/02/20 08:35:58;;;;;;;9.07;4.13;;;;;;;3.75;100.00;98871.22;5015999;28;20394;-74
2022/02/20 08:38:42;;;;;;;6.97;3.33;;;;;;;3.69;100.00;98867.84;5016177;28;20046;-74
2022/02/20 08:41:27;;;;;;;6.38;3.22;;;;;;;3.72;100.00;98860.91;5016458;28;20417;-73
2022/02/20 08:44:11;;;;;;;9.30;4.18;;;;;;;3.84;100.00;98872.84;5016459;28;20354;-73
2022/02/20 08:46:55;;;;;;;13.45;5.00;;;;;;;3.87;100.00;98880.59;5015647;28;20042;-74
2022/02/20 08:49:40;;;;;;;12.50;6.35;;;;;;;3.94;100.00;98863.22;5015181;28;20042;-74
2022/02/20 08:52:25;;;;;;;4.30;2.20;;;;;;;4.03;100.00;98870.88;5029777;28;20100;-73
2022/02/20 08:55:09;;;;;;;11.75;5.57;;;;;;;4.03;100.00;98882.94;5015905;28;20041;-74
2022/02/20 08:57:53;;;;;;;24.77;14.15;;;;;;;4.12;100.00;98867.28;5016624;28;20042;-74
2022/02/20 09:00:38;;;;;;;18.95;14.63;;;;;;;4.12;100.00;98875.91;5016321;28;20323;-74
2022/02/20 09:03:23;;;;;;;14.10;8.35;;;;;;;4.04;100.00;98890.72;5016030;28;20063;-74
2022/02/20 09:06:07;;;;;;;9.70;4.88;;;;;;;4.02;100.00;98850.16;5016789;28;20437;-74
2022/02/20 09:08:52;;;;;;;9.95;6.15;;;;;;;4.21;100.00;98873.19;5029688;28;20121;-74
2022/02/20 09:11:38;;;;;;;4.97;2.85;;;;;;;4.24;100.00;98895.63;5016481;28;20108;-74
2022/02/20 09:14:23;;;;;;;8.20;3.40;;;;;;;4.24;100.00;98889.59;5001657;28;20038;-74
2022/02/20 09:17:07;;;;;;;6.65;3.03;;;;;;;4.31;100.00;98878.25;5015890;28;20049;-74
2022/02/20 09:19:51;;;;;;;6.90;2.97;;;;;;;4.30;100.00;98877.41;5015997;28;20050;-74
2022/02/20 09:22:41;;;;;;;18.15;7.43;;;;;;;4.35;100.00;98911.88;5001919;28;20038;-73
2022/02/20 09:25:25;;;;;;;18.60;8.75;;;;;;;4.33;100.00;98905.88;5015459;28;20129;-74
2022/02/20 09:28:10;;;;;;;134.48;56.00;;;;;;;4.36;100.00;98907.56;5016704;28;20038;-74
2022/02/20 09:34:56;;;;;;;27.55;12.13;;;;;;;4.33;100.00;98916.25;5015759;28;20379;-74
2022/02/20 09:37:41;;;;;;;78.38;29.00;;;;;;;4.34;100.00;98920.53;5001371;28;20045;-74
2022/02/20 09:40:27;;;;;;;18.95;8.32;;;;;;;4.36;100.00;98923.97;5015630;28;20042;-74
2022/02/20 09:43:14;;;;;;;15.13;6.78;;;;;;;4.38;100.00;98932.56;5015283;28;20492;-74
2022/02/20 09:45:59;;;;;;;15.57;5.63;;;;;;;4.52;100.00;98927.22;5015082;28;20057;-74
2022/02/20 09:48:45;;;;;;;6.55;3.60;;;;;;;4.45;100.00;98921.25;5015314;28;20117;-75
2022/02/20 09:51:30;;;;;;;9.35;5.35;;;;;;;4.54;100.00;98928.03;5014843;28;20366;-74
2022/02/20 09:54:14;;;;;;;12.45;7.30;;;;;;;4.58;100.00;98928.84;5015166;28;20038;-75
2022/02/20 09:56:59;;;;;;;22.30;18.02;;;;;;;4.71;100.00;98939.91;5015010;28;20045;-75
2022/02/20 09:59:44;;;;;;;24.70;17.20;;;;;;;4.72;100.00;98939.03;5001160;28;20110;-74
2022/02/20 10:02:36;;;;;;;37.58;25.80;;;;;;;4.67;100.00;98923.53;5003366;28;20084;-74
2022/02/20 10:05:23;;;;;;;14.65;8.27;;;;;;;4.92;100.00;98942.16;5018698;28;20096;-75
2022/02/20 10:08:20;;;;;;;14.65;8.30;;;;;;;5.04;100.00;98935.94;5019605;28;20049;-74
2022/02/20 10:11:22;;;;;;;38.17;29.67;;;;;;;5.18;100.00;98952.13;5018618;28;20069;-75
2022/02/20 10:14:15;;;;;;;12.27;6.45;;;;;;;5.08;100.00;98945.38;5019378;28;20052;-74
2022/02/20 10:17:14;;;;;;;15.80;8.32;;;;;;;5.28;100.00;98953.69;5018726;28;20046;-74
2022/02/20 10:20:25;;;;;;;11.93;5.68;;;;;;;5.20;100.00;98936.50;5018511;28;20046;-74
2022/02/20 10:23:50;;;;;;;14.75;5.90;;;;;;;5.45;100.00;98957.72;4998178;28;20141;-74
2022/02/20 10:26:53;;;;;;;8.85;4.78;;;;;;;5.34;100.00;98948.38;4997796;28;20069;-74
2022/02/20 10:30:14;;;;;;;11.98;4.72;;;;;;;5.55;100.00;98957.50;5019519;28;20410;-74
2022/02/20 10:33:10;;;;;;;9.13;4.57;;;;;;;5.55;100.00;98954.91;5004936;28;20049;-74
2022/02/20 10:35:54;;;;;;;12.75;5.47;;;;;;;5.47;100.00;98956.81;5018537;28;20038;-74
2022/02/20 10:38:39;;;;;;;10.13;5.88;;;;;;;5.55;100.00;98944.53;5018765;28;20053;-74
2022/02/20 10:41:24;;;;;;;11.25;5.88;;;;;;;5.64;100.00;98964.28;5017968;28;20442;-74
2022/02/20 10:44:08;;;;;;;5.53;2.55;;;;;;;5.60;100.00;98949.66;5032361;28;20045;-74
2022/02/20 10:47:13;;;;;;;6.45;3.13;;;;;;;5.61;100.00;98953.97;5018144;28;20077;-74
2022/02/20 10:50:19;;;;;;;2.45;1.65;;;;;;;5.50;100.00;98964.56;5018651;28;20054;-75
2022/02/20 10:53:08;;;;;;;10.38;3.25;;;;;;;5.56;100.00;98964.44;5018158;28;20050;-75
2022/02/20 10:55:54;;;;;;;9.27;2.92;;;;;;;5.66;100.00;98964.28;5003949;28;20042;-75
2022/02/20 10:58:44;;;;;;;16.20;7.18;;;;;;;5.63;100.00;98965.19;5004303;28;20343;-75
2022/02/20 11:01:28;;;;;;;7.65;4.22;;;;;;;5.67;100.00;98958.19;5018828;28;20042;-75
2022/02/20 11:04:14;;;;;;;7.28;3.88;;;;;;;5.79;100.00;98969.22;5017456;28;20335;-74
2022/02/20 11:06:59;;;;;;;6.18;3.22;;;;;;;5.82;100.00;98960.50;5004343;28;20045;-75
2022/02/20 11:09:44;;;;;;;4.28;2.10;;;;;;;5.66;100.00;98980.72;5018635;28;20046;-75
2022/02/20 11:12:29;;;;;;;4.32;2.55;;;;;;;5.90;100.00;98970.75;5017340;28;20042;-75
2022/02/20 11:15:17;;;;;;;6.65;3.65;;;;;;;6.02;100.00;98976.59;5003112;28;20066;-75
2022/02/20 11:18:04;;;;;;;5.03;2.20;;;;;;;6.04;100.00;98972.19;5018525;28;20038;-75
2022/02/20 11:20:51;;;;;;;4.15;2.65;;;;;;;6.12;100.00;98960.81;5017311;28;20053;-75
2022/02/20 11:23:36;;;;;;;5.03;3.05;;;;;;;6.25;100.00;98962.28;5017192;28;20103;-75
2022/02/20 11:26:22;;;;;;;4.53;1.80;;;;;;;6.42;100.00;98961.91;5017685;28;20120;-75
2022/02/20 11:29:06;;;;;;;5.60;2.10;;;;;;;6.42;100.00;98952.34;5018175;28;20038;-74
2022/02/20 11:31:50;;;;;;;3.95;2.28;;;;;;;6.43;100.00;98953.22;5017325;28;20053;-75
2022/02/20 11:34:43;;;;;;;1.67;1.13;;;;;;;6.25;100.00;98936.28;5030798;28;20430;-75
2022/02/20 11:38:07;;;;;;;4.05;1.90;;;;;;;6.44;100.00;98961.00;5018179;28;20116;-75
2022/02/20 11:41:08;;;;;;;3.38;1.83;;;;;;;6.58;100.00;98972.84;5015921;28;20350;-75
2022/02/20 11:43:52;;;;;;;3.45;1.83;;;;;;;6.44;100.00;98968.81;5016261;28;20045;-75
2022/02/20 11:46:49;;;;;;;5.10;2.55;;;;;;;6.39;100.00;98956.78;5017420;28;20061;-75
2022/02/20 11:49:33;;;;;;;7.07;3.65;;;;;;;6.35;100.00;98968.13;5016512;28;20117;-76
2022/02/20 11:52:18;;;;;;;5.07;3.53;;;;;;;6.10;100.00;98968.63;5030525;28;20104;-75
2022/02/20 11:55:12;;;;;;;12.70;8.60;;;;;;;5.98;100.00;98968.88;5017763;28;20041;-75
2022/02/20 11:58:13;;;;;;;39.70;20.65;;;;;;;6.16;100.00;98972.88;5016978;28;20115;-76
2022/02/20 12:00:58;;;;;;;8.90;4.88;;;;;;;5.96;100.00;98965.47;5016740;28;20042;-76
2022/02/20 12:03:43;;;;;;;5.28;4.13;;;;;;;6.01;100.00;98961.00;5017344;28;20050;-76
2022/02/20 12:06:28;;;;;;;6.95;4.35;;;;;;;6.07;100.00;98960.91;5003309;28;20042;-76
2022/02/20 12:09:24;;;;;;;10.68;7.10;;;;;;;6.19;100.00;98968.44;5017851;28;20411;-76
2022/02/20 12:12:33;;;;;;;9.27;5.80;;;;;;;6.23;100.00;98970.09;5016460;28;20065;-75
2022/02/20 12:15:27;;;;;;;5.75;3.60;;;;;;;6.45;100.00;98949.69;5017009;28;20049;-75
2022/02/20 12:18:12;;;;;;;5.75;3.65;;;;;;;6.69;100.00;98965.63;5017604;28;20426;-76
2022/02/20 12:20:56;;;;;;;3.72;2.70;;;;;;;6.70;100.00;98964.78;5016564;28;20429;-75
2022/02/20 12:23:49;;;;;;;15.88;8.43;;;;;;;6.82;100.00;98972.28;5002722;28;20414;-75
2022/02/20 12:26:50;;;;;;;13.55;7.93;;;;;;;7.04;100.00;98980.44;5016365;28;20340;-76
2022/02/20 12:29:37;;;;;;;7.28;3.80;;;;;;;6.94;100.00;98971.16;5016755;28;20049;-76
2022/02/20 12:32:28;;;;;;;9.98;5.38;;;;;;;6.90;100.00;98972.97;5017485;28;20079;-76
2022/02/20 12:35:15;;;;;;;9.07;4.90;;;;;;;7.07;100.00;98962.16;5016121;28;20053;-76
2022/02/20 12:38:00;;;;;;;7.40;4.50;;;;;;;7.04;100.00;98970.03;5017158;28;20038;-75
2022/02/20 12:40:45;;;;;;;9.85;4.95;;;;;;;7.01;100.00;98975.31;5016180;28;20053;-75
2022/02/20 12:43:32;;;;;;;10.27;5.10;;;;;;;6.93;100.00;98957.28;5002617;28;20046;-75
2022/02/20 12:46:16;;;;;;;6.75;3.15;;;;;;;7.00;100.00;98978.81;5030485;28;20120;-75
2022/02/20 12:49:01;;;;;;;5.88;3.38;;;;;;;6.92;100.00;98967.72;5015982;28;20048;-75
2022/02/20 12:51:45;;;;;;;9.50;6.75;;;;;;;6.90;100.00;98972.13;5016537;28;20058;-76
2022/02/20 12:54:32;;;;;;;14.52;6.57;;;;;;;6.92;100.00;98971.19;5016789;28;20046;-75
2022/02/20 12:57:17;;;;;;;15.05;8.15;;;;;;;6.95;100.00;98962.44;5016415;28;20046;-75
2022/02/20 13:00:06;;;;;;;8.98;4.78;;;;;;;6.93;100.00;98978.09;5016549;28;20402;-75
2022/02/20 13:02:52;;;;;;;15.23;6.28;;;;;;;6.95;100.00;98973.69;5016478;28;20346;-75
2022/02/20 13:05:37;;;;;;;12.98;5.90;;;;;;;6.98;100.00;98972.78;5016436;28;20037;-75
2022/02/20 13:08:27;;;;;;;6.68;3.42;;;;;;;7.02;100.00;98954.47;5029962;28;20438;-76
2022/02/20 13:11:23;;;;;;;21.83;11.57;;;;;;;7.11;100.00;98966.38;5016720;28;20033;-75
2022/02/20 13:14:08;;;;;;;8.13;4.88;;;;;;;7.09;100.00;98970.78;5015850;28;20065;-76
2022/02/20 13:16:53;;;;;;;8.77;4.95;;;;;;;7.22;100.00;98953.97;5015676;28;20427;-76
2022/02/20 13:19:38;;;;;;;7.15;3.83;;;;;;;7.32;100.00;98957.19;5016168;28;20109;-76